sensor_id;sensor_type;location;lat;lon;timestamp;pressure;altitude;pressure_sealevel;temperature;humidity
17525;BME280;40431;52.198;9.902;2022-12-20T00:00:10;100758.47;;;4.84;100.00
17525;BME280;40431;52.198;9.902;2022-12-20T00:02:37;100770.13;;;4.83;100.00
17525;BME280;40431;52.198;9.902;2022-12-20T00:05:05;100772.88;;;4.82;100.00
17525;BME280;40431;52.198;9.902;2022-12-20T00:07:32;100763.97;;;4.80;100.00
17525;BME280;40431;52.198;9.902;2022-12-20T00:09:59;100759.69;;;4.74;100.00
17525;BME280;40431;52.198;9.902;2022-12-20T00:12:26;100760.66;;;4.72;100.00
17525;BME280;40431;52.198;9.902;2022-12-20T00:14:52;100758.59;;;4.80;100.00
17525;BME280;40431;52.198;9.902;2022-12-20T00:17:20;100767.50;;;4.82;100.00
17525;BME280;40431;52.198;9.902;2022-12-20T00:19:46;100771.03;;;4.84;100.00
17525;BME280;40431;52.198;9.902;2022-12-20T00:22:14;100763.00;;;4.82;100.00
17525;BME280;40431;52.198;9.902;2022-12-20T00:24:41;100764.03;;;4.78;100.00
17525;BME280;40431;52.198;9.902;2022-12-20T00:27:07;100752.56;;;4.73;100.00
17525;BME280;40431;52.198;9.902;2022-12-20T00:29:34;100755.03;;;4.79;100.00
17525;BME280;40431;52.198;9.902;2022-12-20T00:32:00;100749.72;;;4.78;100.00
17525;BME280;40431;52.198;9.902;2022-12-20T00:34:27;100750.59;;;4.78;100.00
17525;BME280;40431;52.198;9.902;2022-12-20T00:36:54;100740.69;;;4.80;100.00
17525;BME280;40431;52.198;9.902;2022-12-20T00:39:22;100729.22;;;4.75;100.00
17525;BME280;40431;52.198;9.902;2022-12-20T00:41:48;100737.09;;;4.80;100.00
17525;BME280;40431;52.198;9.902;2022-12-20T00:44:15;100735.09;;;4.87;100.00
17525;BME280;40431;52.198;9.902;2022-12-20T00:46:41;100735.50;;;5.01;100.00
17525;BME280;40431;52.198;9.902;2022-12-20T00:49:08;100737.91;;;5.09;100.00
17525;BME280;40431;52.198;9.902;2022-12-20T00:51:34;100743.63;;;5.25;100.00
17525;BME280;40431;52.198;9.902;2022-12-20T00:54:01;100740.84;;;5.28;100.00
17525;BME280;40431;52.198;9.902;2022-12-20T00:56:29;100743.16;;;5.37;100.00
17525;BME280;40431;52.198;9.902;2022-12-20T00:58:57;100732.19;;;5.43;100.00
17525;BME280;40431;52.198;9.902;2022-12-20T01:01:25;100737.34;;;5.49;100.00
17525;BME280;40431;52.198;9.902;2022-12-20T01:03:53;100731.00;;;5.52;100.00
17525;BME280;40431;52.198;9.902;2022-12-20T01:06:20;100721.22;;;5.49;100.00
17525;BME280;40431;52.198;9.902;2022-12-20T01:08:47;100726.59;;;5.49;100.00
17525;BME280;40431;52.198;9.902;2022-12-20T01:11:15;100717.69;;;5.47;100.00
17525;BME280;40431;52.198;9.902;2022-12-20T01:13:46;100720.81;;;5.60;100.00
17525;BME280;40431;52.198;9.902;2022-12-20T01:16:15;100725.34;;;5.60;100.00
17525;BME280;40431;52.198;9.902;2022-12-20T01:18:42;100720.88;;;5.59;100.00
17525;BME280;40431;52.198;9.902;2022-12-20T01:21:12;100718.00;;;5.63;100.00
17525;BME280;40431;52.198;9.902;2022-12-20T01:23:39;100722.63;;;5.60;100.00
17525;BME280;40431;52.198;9.902;2022-12-20T01:26:09;100719.13;;;5.58;100.00
17525;BME280;40431;52.198;9.902;2022-12-20T01:28:37;100725.34;;;5.58;100.00
17525;BME280;40431;52.198;9.902;2022-12-20T01:31:07;100730.09;;;5.51;100.00
17525;BME280;40431;52.198;9.902;2022-12-20T01:33:34;100732.06;;;5.46;100.00
17525;BME280;40431;52.198;9.902;2022-12-20T01:36:03;100731.31;;;5.43;100.00
17525;BME280;40431;52.198;9.902;2022-12-20T01:38:30;100716.25;;;5.39;100.00
17525;BME280;40431;52.198;9.902;2022-12-20T01:40:56;100719.94;;;5.36;100.00
17525;BME280;40431;52.198;9.902;2022-12-20T01:43:24;100714.75;;;5.30;100.00
17525;BME280;40431;52.198;9.902;2022-12-20T01:45:51;100709.50;;;5.27;100.00
17525;BME280;40431;52.198;9.902;2022-12-20T01:48:22;100698.50;;;5.33;100.00
17525;BME280;40431;52.198;9.902;2022-12-20T01:50:51;100695.13;;;5.28;100.00
17525;BME280;40431;52.198;9.902;2022-12-20T01:53:19;100700.50;;;5.28;100.00
17525;BME280;40431;52.198;9.902;2022-12-20T01:55:48;100701.09;;;5.36;100.00
17525;BME280;40431;52.198;9.902;2022-12-20T01:58:17;100684.00;;;5.37;100.00
17525;BME280;40431;52.198;9.902;2022-12-20T02:00:45;100690.09;;;5.42;100.00
17525;BME280;40431;52.198;9.902;2022-12-20T02:03:13;100680.97;;;5.46;100.00
17525;BME280;40431;52.198;9.902;2022-12-20T02:05:44;100672.81;;;5.49;100.00
17525;BME280;40431;52.198;9.902;2022-12-20T02:08:12;100669.00;;;5.55;100.00
17525;BME280;40431;52.198;9.902;2022-12-20T02:10:52;100665.31;;;5.58;100.00
17525;BME280;40431;52.198;9.902;2022-12-20T02:13:33;100675.38;;;5.76;100.00
17525;BME280;40431;52.198;9.902;2022-12-20T02:16:03;100663.41;;;5.83;100.00
17525;BME280;40431;52.198;9.902;2022-12-20T02:18:35;100664.66;;;5.98;100.00
17525;BME280;40431;52.198;9.902;2022-12-20T02:21:18;100666.00;;;6.10;100.00
17525;BME280;40431;52.198;9.902;2022-12-20T02:27:20;100679.25;;;6.37;100.00
17525;BME280;40431;52.198;9.902;2022-12-20T02:30:01;100669.03;;;6.45;100.00
17525;BME280;40431;52.198;9.902;2022-12-20T02:32:33;100668.63;;;6.55;100.00
17525;BME280;40431;52.198;9.902;2022-12-20T02:35:04;100668.72;;;6.53;100.00
17525;BME280;40431;52.198;9.902;2022-12-20T02:37:31;100659.94;;;6.48;100.00
17525;BME280;40431;52.198;9.902;2022-12-20T02:39:58;100637.38;;;6.50;100.00
17525;BME280;40431;52.198;9.902;2022-12-20T02:42:26;100640.81;;;6.54;100.00
17525;BME280;40431;52.198;9.902;2022-12-20T02:45:00;100646.84;;;6.61;100.00
17525;BME280;40431;52.198;9.902;2022-12-20T02:47:44;100652.06;;;6.64;100.00
17525;BME280;40431;52.198;9.902;2022-12-20T02:50:13;100669.59;;;6.74;100.00
17525;BME280;40431;52.198;9.902;2022-12-20T02:52:42;100663.81;;;6.83;100.00
17525;BME280;40431;52.198;9.902;2022-12-20T02:55:09;100667.16;;;6.89;100.00
17525;BME280;40431;52.198;9.902;2022-12-20T02:57:42;100652.56;;;6.94;100.00
17525;BME280;40431;52.198;9.902;2022-12-20T03:00:14;100642.72;;;6.93;100.00
17525;BME280;40431;52.198;9.902;2022-12-20T03:02:43;100643.72;;;6.91;100.00
17525;BME280;40431;52.198;9.902;2022-12-20T03:05:28;100643.47;;;6.97;100.00
17525;BME280;40431;52.198;9.902;2022-12-20T03:07:55;100654.03;;;7.01;100.00
17525;BME280;40431;52.198;9.902;2022-12-20T03:10:22;100661.25;;;7.01;100.00
17525;BME280;40431;52.198;9.902;2022-12-20T03:12:49;100656.56;;;7.05;100.00
17525;BME280;40431;52.198;9.902;2022-12-20T03:15:17;100655.44;;;7.10;100.00
17525;BME280;40431;52.198;9.902;2022-12-20T03:17:44;100647.34;;;7.10;100.00
17525;BME280;40431;52.198;9.902;2022-12-20T03:20:11;100637.91;;;7.00;100.00
17525;BME280;40431;52.198;9.902;2022-12-20T03:22:38;100634.41;;;6.98;100.00
17525;BME280;40431;52.198;9.902;2022-12-20T03:25:05;100628.28;;;6.94;100.00
17525;BME280;40431;52.198;9.902;2022-12-20T03:27:32;100639.88;;;6.96;100.00
17525;BME280;40431;52.198;9.902;2022-12-20T03:29:58;100618.53;;;6.92;100.00
17525;BME280;40431;52.198;9.902;2022-12-20T03:32:26;100623.78;;;6.95;100.00
17525;BME280;40431;52.198;9.902;2022-12-20T03:34:53;100630.06;;;6.95;100.00
17525;BME280;40431;52.198;9.902;2022-12-20T03:37:20;100633.75;;;6.93;100.00
17525;BME280;40431;52.198;9.902;2022-12-20T03:39:47;100646.16;;;6.97;100.00
17525;BME280;40431;52.198;9.902;2022-12-20T03:42:13;100655.19;;;6.96;100.00
17525;BME280;40431;52.198;9.902;2022-12-20T03:44:40;100652.75;;;6.90;100.00
17525;BME280;40431;52.198;9.902;2022-12-20T03:47:07;100650.88;;;6.92;100.00
17525;BME280;40431;52.198;9.902;2022-12-20T03:49:34;100640.19;;;6.89;100.00
17525;BME280;40431;52.198;9.902;2022-12-20T03:52:01;100637.41;;;6.92;100.00
17525;BME280;40431;52.198;9.902;2022-12-20T03:54:28;100637.47;;;6.90;100.00
17525;BME280;40431;52.198;9.902;2022-12-20T03:56:54;100636.56;;;6.90;100.00
17525;BME280;40431;52.198;9.902;2022-12-20T03:59:21;100645.47;;;6.92;100.00
17525;BME280;40431;52.198;9.902;2022-12-20T04:01:47;100636.72;;;6.87;100.00
17525;BME280;40431;52.198;9.902;2022-12-20T04:04:14;100639.41;;;6.87;100.00
17525;BME280;40431;52.198;9.902;2022-12-20T04:06:42;100631.19;;;6.90;100.00
17525;BME280;40431;52.198;9.902;2022-12-20T04:09:09;100633.09;;;6.88;100.00
17525;BME280;40431;52.198;9.902;2022-12-20T04:11:35;100631.31;;;6.87;100.00
17525;BME280;40431;52.198;9.902;2022-12-20T04:14:03;100625.25;;;6.81;100.00
17525;BME280;40431;52.198;9.902;2022-12-20T04:16:30;100629.03;;;6.77;100.00
17525;BME280;40431;52.198;9.902;2022-12-20T04:18:57;100644.69;;;6.69;100.00
17525;BME280;40431;52.198;9.902;2022-12-20T04:21:25;100634.91;;;6.66;100.00
17525;BME280;40431;52.198;9.902;2022-12-20T04:23:53;100644.78;;;6.66;100.00
17525;BME280;40431;52.198;9.902;2022-12-20T04:26:20;100645.06;;;6.60;100.00
17525;BME280;40431;52.198;9.902;2022-12-20T04:28:47;100649.53;;;6.61;100.00
17525;BME280;40431;52.198;9.902;2022-12-20T04:31:14;100663.09;;;6.58;100.00
17525;BME280;40431;52.198;9.902;2022-12-20T04:33:40;100645.19;;;6.57;100.00
17525;BME280;40431;52.198;9.902;2022-12-20T04:36:07;100629.69;;;6.62;100.00
17525;BME280;40431;52.198;9.902;2022-12-20T04:38:34;100626.31;;;6.57;100.00
17525;BME280;40431;52.198;9.902;2022-12-20T04:41:02;100624.44;;;6.59;100.00
17525;BME280;40431;52.198;9.902;2022-12-20T04:43:28;100627.69;;;6.67;100.00
17525;BME280;40431;52.198;9.902;2022-12-20T04:45:55;100645.53;;;6.69;100.00
17525;BME280;40431;52.198;9.902;2022-12-20T04:48:23;100646.00;;;6.79;100.00
17525;BME280;40431;52.198;9.902;2022-12-20T04:50:51;100658.44;;;6.83;100.00
17525;BME280;40431;52.198;9.902;2022-12-20T04:53:18;100645.75;;;6.85;100.00
17525;BME280;40431;52.198;9.902;2022-12-20T04:56:05;100643.88;;;6.88;100.00
17525;BME280;40431;52.198;9.902;2022-12-20T04:58:32;100648.09;;;6.93;100.00
17525;BME280;40431;52.198;9.902;2022-12-20T05:00:58;100649.72;;;6.97;100.00
17525;BME280;40431;52.198;9.902;2022-12-20T05:03:26;100650.31;;;7.04;100.00
17525;BME280;40431;52.198;9.902;2022-12-20T05:05:52;100652.69;;;7.12;100.00
17525;BME280;40431;52.198;9.902;2022-12-20T05:08:19;100630.88;;;7.16;100.00
17525;BME280;40431;52.198;9.902;2022-12-20T05:10:46;100637.09;;;7.18;100.00
17525;BME280;40431;52.198;9.902;2022-12-20T05:13:14;100636.16;;;7.19;100.00
17525;BME280;40431;52.198;9.902;2022-12-20T05:15:41;100637.09;;;7.18;100.00
17525;BME280;40431;52.198;9.902;2022-12-20T05:18:08;100631.41;;;7.25;100.00
17525;BME280;40431;52.198;9.902;2022-12-20T05:20:35;100628.06;;;7.19;100.00
17525;BME280;40431;52.198;9.902;2022-12-20T05:23:01;100622.34;;;7.26;100.00
17525;BME280;40431;52.198;9.902;2022-12-20T05:25:48;100619.53;;;7.29;100.00
17525;BME280;40431;52.198;9.902;2022-12-20T05:28:30;100617.34;;;7.37;100.00
17525;BME280;40431;52.198;9.902;2022-12-20T05:30:57;100621.66;;;7.41;100.00
17525;BME280;40431;52.198;9.902;2022-12-20T05:33:23;100626.03;;;7.44;100.00
17525;BME280;40431;52.198;9.902;2022-12-20T05:35:50;100618.03;;;7.42;100.00
17525;BME280;40431;52.198;9.902;2022-12-20T05:38:17;100625.19;;;7.43;100.00
17525;BME280;40431;52.198;9.902;2022-12-20T05:40:46;100625.09;;;7.45;100.00
17525;BME280;40431;52.198;9.902;2022-12-20T05:43:14;100620.50;;;7.47;100.00
17525;BME280;40431;52.198;9.902;2022-12-20T05:45:45;100620.41;;;7.48;100.00
17525;BME280;40431;52.198;9.902;2022-12-20T05:48:12;100610.59;;;7.47;100.00
17525;BME280;40431;52.198;9.902;2022-12-20T05:50:39;100616.00;;;7.47;100.00
17525;BME280;40431;52.198;9.902;2022-12-20T05:53:06;100615.16;;;7.45;100.00
17525;BME280;40431;52.198;9.902;2022-12-20T05:55:32;100618.81;;;7.44;100.00
17525;BME280;40431;52.198;9.902;2022-12-20T05:58:00;100617.09;;;7.43;100.00
17525;BME280;40431;52.198;9.902;2022-12-20T06:00:26;100616.94;;;7.46;100.00
17525;BME280;40431;52.198;9.902;2022-12-20T06:02:54;100621.38;;;7.47;100.00
17525;BME280;40431;52.198;9.902;2022-12-20T06:05:21;100617.72;;;7.48;100.00
17525;BME280;40431;52.198;9.902;2022-12-20T06:07:47;100622.16;;;7.49;100.00
17525;BME280;40431;52.198;9.902;2022-12-20T06:10:14;100616.84;;;7.48;100.00
17525;BME280;40431;52.198;9.902;2022-12-20T06:12:41;100617.88;;;7.45;100.00
17525;BME280;40431;52.198;9.902;2022-12-20T06:15:08;100607.94;;;7.46;100.00
17525;BME280;40431;52.198;9.902;2022-12-20T06:17:35;100613.22;;;7.49;100.00
17525;BME280;40431;52.198;9.902;2022-12-20T06:20:04;100614.22;;;7.46;100.00
17525;BME280;40431;52.198;9.902;2022-12-20T06:22:31;100607.94;;;7.46;100.00
17525;BME280;40431;52.198;9.902;2022-12-20T06:24:58;100606.22;;;7.45;100.00
17525;BME280;40431;52.198;9.902;2022-12-20T06:27:24;100614.22;;;7.46;100.00
17525;BME280;40431;52.198;9.902;2022-12-20T06:29:51;100616.94;;;7.46;100.00
17525;BME280;40431;52.198;9.902;2022-12-20T06:32:18;100609.69;;;7.47;100.00
17525;BME280;40431;52.198;9.902;2022-12-20T06:34:45;100609.84;;;7.44;100.00
17525;BME280;40431;52.198;9.902;2022-12-20T06:37:13;100604.38;;;7.45;100.00
17525;BME280;40431;52.198;9.902;2022-12-20T06:39:40;100605.25;;;7.46;100.00
17525;BME280;40431;52.198;9.902;2022-12-20T06:42:06;100608.84;;;7.46;100.00
17525;BME280;40431;52.198;9.902;2022-12-20T06:44:33;100604.38;;;7.45;100.00
17525;BME280;40431;52.198;9.902;2022-12-20T06:47:00;100597.16;;;7.46;100.00
17525;BME280;40431;52.198;9.902;2022-12-20T06:49:26;100600.06;;;7.41;100.00
17525;BME280;40431;52.198;9.902;2022-12-20T06:51:54;100597.66;;;7.35;100.00
17525;BME280;40431;52.198;9.902;2022-12-20T06:54:22;100596.88;;;7.33;100.00
17525;BME280;40431;52.198;9.902;2022-12-20T06:56:48;100601.44;;;7.31;100.00
17525;BME280;40431;52.198;9.902;2022-12-20T06:59:15;100587.19;;;7.29;100.00
17525;BME280;40431;52.198;9.902;2022-12-20T07:01:42;100597.66;;;7.35;100.00
17525;BME280;40431;52.198;9.902;2022-12-20T07:04:09;100594.97;;;7.35;100.00
17525;BME280;40431;52.198;9.902;2022-12-20T07:06:35;100586.09;;;7.33;100.00
17525;BME280;40431;52.198;9.902;2022-12-20T07:09:02;100581.72;;;7.30;100.00
17525;BME280;40431;52.198;9.902;2022-12-20T07:11:30;100580.69;;;7.33;100.00
17525;BME280;40431;52.198;9.902;2022-12-20T07:13:57;100581.47;;;7.35;100.00
17525;BME280;40431;52.198;9.902;2022-12-20T07:16:24;100575.28;;;7.33;100.00
17525;BME280;40431;52.198;9.902;2022-12-20T07:18:51;100583.31;;;7.34;100.00
17525;BME280;40431;52.198;9.902;2022-12-20T07:21:19;100578.78;;;7.35;100.00
17525;BME280;40431;52.198;9.902;2022-12-20T07:23:46;100568.72;;;7.39;100.00
17525;BME280;40431;52.198;9.902;2022-12-20T07:26:13;100562.31;;;7.41;100.00
17525;BME280;40431;52.198;9.902;2022-12-20T07:28:42;100567.53;;;7.44;100.00
17525;BME280;40431;52.198;9.902;2022-12-20T07:31:09;100580.97;;;7.46;100.00
17525;BME280;40431;52.198;9.902;2022-12-20T07:33:36;100578.06;;;7.50;100.00
17525;BME280;40431;52.198;9.902;2022-12-20T07:36:05;100579.00;;;7.49;100.00
17525;BME280;40431;52.198;9.902;2022-12-20T07:38:32;100561.78;;;7.52;100.00
17525;BME280;40431;52.198;9.902;2022-12-20T07:40:59;100570.63;;;7.56;100.00
17525;BME280;40431;52.198;9.902;2022-12-20T07:43:26;100570.53;;;7.57;100.00
17525;BME280;40431;52.198;9.902;2022-12-20T07:45:55;100563.03;;;7.64;100.00
17525;BME280;40431;52.198;9.902;2022-12-20T07:48:22;100586.38;;;7.65;100.00
17525;BME280;40431;52.198;9.902;2022-12-20T07:50:50;100582.84;;;7.63;100.00
17525;BME280;40431;52.198;9.902;2022-12-20T07:53:17;100576.50;;;7.64;100.00
17525;BME280;40431;52.198;9.902;2022-12-20T07:55:48;100565.88;;;7.61;100.00
17525;BME280;40431;52.198;9.902;2022-12-20T07:58:33;100575.00;;;7.58;100.00
17525;BME280;40431;52.198;9.902;2022-12-20T08:01:16;100559.66;;;7.59;100.00
17525;BME280;40431;52.198;9.902;2022-12-20T08:03:48;100552.38;;;7.61;100.00
17525;BME280;40431;52.198;9.902;2022-12-20T08:06:18;100550.47;;;7.63;100.00
17525;BME280;40431;52.198;9.902;2022-12-20T08:08:54;100553.97;;;7.65;100.00
17525;BME280;40431;52.198;9.902;2022-12-20T08:11:45;100555.28;;;7.75;100.00
17525;BME280;40431;52.198;9.902;2022-12-20T08:14:16;100550.75;;;7.76;100.00
17525;BME280;40431;52.198;9.902;2022-12-20T08:16:49;100546.94;;;7.80;100.00
17525;BME280;40431;52.198;9.902;2022-12-20T08:22:27;100540.31;;;7.87;100.00
17525;BME280;40431;52.198;9.902;2022-12-20T08:25:00;100541.25;;;7.86;100.00
17525;BME280;40431;52.198;9.902;2022-12-20T08:27:29;100535.84;;;7.86;100.00
17525;BME280;40431;52.198;9.902;2022-12-20T08:30:00;100536.41;;;7.93;100.00
17525;BME280;40431;52.198;9.902;2022-12-20T08:32:33;100533.00;;;7.89;100.00
17525;BME280;40431;52.198;9.902;2022-12-20T08:35:35;100542.69;;;7.93;100.00
17525;BME280;40431;52.198;9.902;2022-12-20T08:38:03;100546.19;;;7.95;100.00
17525;BME280;40431;52.198;9.902;2022-12-20T08:40:32;100551.44;;;7.98;100.00
17525;BME280;40431;52.198;9.902;2022-12-20T08:43:09;100540.72;;;7.97;100.00
17525;BME280;40431;52.198;9.902;2022-12-20T08:45:37;100544.06;;;8.02;100.00
17525;BME280;40431;52.198;9.902;2022-12-20T08:48:06;100542.63;;;8.12;100.00
17525;BME280;40431;52.198;9.902;2022-12-20T08:50:39;100535.47;;;8.11;100.00
17525;BME280;40431;52.198;9.902;2022-12-20T08:53:17;100535.41;;;8.13;100.00
17525;BME280;40431;52.198;9.902;2022-12-20T08:55:46;100527.22;;;8.14;100.00
17525;BME280;40431;52.198;9.902;2022-12-20T08:58:16;100519.91;;;8.16;100.00
17525;BME280;40431;52.198;9.902;2022-12-20T09:00:57;100519.66;;;8.21;100.00
17525;BME280;40431;52.198;9.902;2022-12-20T09:03:28;100524.97;;;8.23;100.00
17525;BME280;40431;52.198;9.902;2022-12-20T09:05:55;100524.84;;;8.26;100.00
17525;BME280;40431;52.198;9.902;2022-12-20T09:08:22;100518.47;;;8.27;100.00
17525;BME280;40431;52.198;9.902;2022-12-20T09:10:50;100518.16;;;8.33;100.00
17525;BME280;40431;52.198;9.902;2022-12-20T09:13:17;100529.91;;;8.32;100.00
17525;BME280;40431;52.198;9.902;2022-12-20T09:15:44;100541.34;;;8.37;100.00
17525;BME280;40431;52.198;9.902;2022-12-20T09:18:10;100544.13;;;8.35;100.00
17525;BME280;40431;52.198;9.902;2022-12-20T09:20:42;100528.66;;;8.39;100.00
17525;BME280;40431;52.198;9.902;2022-12-20T09:23:10;100544.69;;;8.42;100.00
17525;BME280;40431;52.198;9.902;2022-12-20T09:25:37;100532.72;;;8.48;100.00
17525;BME280;40431;52.198;9.902;2022-12-20T09:28:03;100531.69;;;8.50;100.00
17525;BME280;40431;52.198;9.902;2022-12-20T09:30:30;100516.41;;;8.49;100.00
17525;BME280;40431;52.198;9.902;2022-12-20T09:32:57;100516.50;;;8.48;100.00
17525;BME280;40431;52.198;9.902;2022-12-20T09:35:24;100508.31;;;8.49;100.00
17525;BME280;40431;52.198;9.902;2022-12-20T09:37:52;100514.53;;;8.51;100.00
17525;BME280;40431;52.198;9.902;2022-12-20T09:40:21;100515.25;;;8.55;100.00
17525;BME280;40431;52.198;9.902;2022-12-20T09:42:50;100517.84;;;8.57;100.00
17525;BME280;40431;52.198;9.902;2022-12-20T09:45:23;100516.56;;;8.64;100.00
17525;BME280;40431;52.198;9.902;2022-12-20T09:47:50;100514.47;;;8.69;100.00
17525;BME280;40431;52.198;9.902;2022-12-20T09:50:18;100514.31;;;8.72;100.00
17525;BME280;40431;52.198;9.902;2022-12-20T09:52:59;100510.84;;;8.70;100.00
17525;BME280;40431;52.198;9.902;2022-12-20T09:55:33;100516.78;;;8.77;100.00
17525;BME280;40431;52.198;9.902;2022-12-20T09:58:11;100518.25;;;8.82;100.00
17525;BME280;40431;52.198;9.902;2022-12-20T10:00:45;100521.78;;;8.84;100.00
17525;BME280;40431;52.198;9.902;2022-12-20T10:03:18;100502.75;;;8.86;100.00
17525;BME280;40431;52.198;9.902;2022-12-20T10:05:50;100501.91;;;8.85;100.00
17525;BME280;40431;52.198;9.902;2022-12-20T10:08:36;100496.03;;;8.93;100.00
17525;BME280;40431;52.198;9.902;2022-12-20T10:11:13;100493.28;;;8.95;100.00
17525;BME280;40431;52.198;9.902;2022-12-20T10:14:07;100488.81;;;8.94;100.00
17525;BME280;40431;52.198;9.902;2022-12-20T10:16:45;100486.78;;;8.97;100.00
17525;BME280;40431;52.198;9.902;2022-12-20T10:19:38;100486.66;;;9.00;100.00
17525;BME280;40431;52.198;9.902;2022-12-20T10:22:17;100486.38;;;9.05;100.00
17525;BME280;40431;52.198;9.902;2022-12-20T10:25:07;100482.63;;;9.08;100.00
17525;BME280;40431;52.198;9.902;2022-12-20T10:27:42;100478.25;;;9.05;100.00
17525;BME280;40431;52.198;9.902;2022-12-20T10:30:22;100465.25;;;9.12;100.00
17525;BME280;40431;52.198;9.902;2022-12-20T10:32:58;100470.59;;;9.13;100.00
17525;BME280;40431;52.198;9.902;2022-12-20T10:35:46;100465.16;;;9.13;100.00
17525;BME280;40431;52.198;9.902;2022-12-20T10:38:22;100466.06;;;9.14;100.00
17525;BME280;40431;52.198;9.902;2022-12-20T10:41:02;100450.78;;;9.13;100.00
17525;BME280;40431;52.198;9.902;2022-12-20T10:43:48;100442.44;;;9.17;100.00
17525;BME280;40431;52.198;9.902;2022-12-20T10:46:34;100445.66;;;9.24;100.00
17525;BME280;40431;52.198;9.902;2022-12-20T10:49:28;100444.94;;;9.21;100.00
17525;BME280;40431;52.198;9.902;2022-12-20T10:52:13;100441.09;;;9.25;100.00
17525;BME280;40431;52.198;9.902;2022-12-20T10:54:44;100436.31;;;9.30;100.00
17525;BME280;40431;52.198;9.902;2022-12-20T10:57:25;100434.13;;;9.36;100.00
17525;BME280;40431;52.198;9.902;2022-12-20T11:00:01;100424.84;;;9.41;100.00
17525;BME280;40431;52.198;9.902;2022-12-20T11:02:31;100425.72;;;9.41;100.00
17525;BME280;40431;52.198;9.902;2022-12-20T11:05:00;100417.53;;;9.43;100.00
17525;BME280;40431;52.198;9.902;2022-12-20T11:07:29;100430.00;;;9.45;100.00
17525;BME280;40431;52.198;9.902;2022-12-20T11:09:58;100445.09;;;9.49;100.00
17525;BME280;40431;52.198;9.902;2022-12-20T11:12:26;100433.22;;;9.52;100.00
17525;BME280;40431;52.198;9.902;2022-12-20T11:15:07;100430.59;;;9.50;100.00
17525;BME280;40431;52.198;9.902;2022-12-20T11:17:36;100423.25;;;9.52;100.00
17525;BME280;40431;52.198;9.902;2022-12-20T11:20:14;100431.78;;;9.61;100.00
17525;BME280;40431;52.198;9.902;2022-12-20T11:22:52;100422.53;;;9.65;100.00
17525;BME280;40431;52.198;9.902;2022-12-20T11:25:35;100424.09;;;9.69;100.00
17525;BME280;40431;52.198;9.902;2022-12-20T11:28:18;100443.09;;;9.83;99.04
17525;BME280;40431;52.198;9.902;2022-12-20T11:30:55;100418.81;;;9.82;99.06
17525;BME280;40431;52.198;9.902;2022-12-20T11:33:40;100414.97;;;9.86;99.05
17525;BME280;40431;52.198;9.902;2022-12-20T11:36:17;100415.66;;;9.90;98.80
17525;BME280;40431;52.198;9.902;2022-12-20T11:38:49;100417.47;;;9.89;98.89
17525;BME280;40431;52.198;9.902;2022-12-20T11:41:27;100400.97;;;9.94;98.81
17525;BME280;40431;52.198;9.902;2022-12-20T11:44:05;100386.25;;;9.98;97.93
17525;BME280;40431;52.198;9.902;2022-12-20T11:46:42;100376.38;;;9.97;98.01
17525;BME280;40431;52.198;9.902;2022-12-20T11:49:32;100385.41;;;9.97;98.12
17525;BME280;40431;52.198;9.902;2022-12-20T11:52:09;100382.59;;;9.99;97.89
17525;BME280;40431;52.198;9.902;2022-12-20T11:54:41;100382.59;;;9.99;97.28
17525;BME280;40431;52.198;9.902;2022-12-20T11:57:14;100380.94;;;9.96;96.99
17525;BME280;40431;52.198;9.902;2022-12-20T11:59:47;100375.63;;;9.95;96.74
17525;BME280;40431;52.198;9.902;2022-12-20T12:02:21;100364.97;;;9.92;97.25
17525;BME280;40431;52.198;9.902;2022-12-20T12:04:54;100367.66;;;9.92;97.23
17525;BME280;40431;52.198;9.902;2022-12-20T12:07:25;100367.59;;;9.93;96.94
17525;BME280;40431;52.198;9.902;2022-12-20T12:09:55;100361.50;;;9.90;97.22
17525;BME280;40431;52.198;9.902;2022-12-20T12:12:26;100345.59;;;9.83;97.44
17525;BME280;40431;52.198;9.902;2022-12-20T12:14:59;100359.03;;;9.85;97.22
17525;BME280;40431;52.198;9.902;2022-12-20T12:17:33;100359.94;;;9.85;97.00
17525;BME280;40431;52.198;9.902;2022-12-20T12:20:17;100354.31;;;9.89;96.92
17525;BME280;40431;52.198;9.902;2022-12-20T12:22:47;100341.94;;;9.84;96.92
17525;BME280;40431;52.198;9.902;2022-12-20T12:25:17;100333.81;;;9.84;96.51
17525;BME280;40431;52.198;9.902;2022-12-20T12:27:43;100334.78;;;9.83;96.53
17525;BME280;40431;52.198;9.902;2022-12-20T12:30:14;100312.94;;;9.86;96.98
17525;BME280;40431;52.198;9.902;2022-12-20T12:32:44;100328.28;;;9.86;96.81
17525;BME280;40431;52.198;9.902;2022-12-20T12:35:22;100316.22;;;9.92;96.66
17525;BME280;40431;52.198;9.902;2022-12-20T12:38:21;100300.84;;;9.92;96.73
17525;BME280;40431;52.198;9.902;2022-12-20T12:41:20;100305.31;;;9.93;96.65
17525;BME280;40431;52.198;9.902;2022-12-20T12:43:53;100305.09;;;9.96;96.37
17525;BME280;40431;52.198;9.902;2022-12-20T12:46:26;100290.28;;;10.02;96.10
17525;BME280;40431;52.198;9.902;2022-12-20T12:48:57;100275.41;;;10.09;95.78
17525;BME280;40431;52.198;9.902;2022-12-20T12:51:28;100283.44;;;10.11;95.20
17525;BME280;40431;52.198;9.902;2022-12-20T12:54:03;100294.28;;;10.11;95.20
17525;BME280;40431;52.198;9.902;2022-12-20T12:56:39;100292.22;;;10.14;94.98
17525;BME280;40431;52.198;9.902;2022-12-20T13:02:33;100266.28;;;10.10;94.62
17525;BME280;40431;52.198;9.902;2022-12-20T13:05:29;100256.63;;;10.06;94.60
17525;BME280;40431;52.198;9.902;2022-12-20T13:07:58;100272.00;;;10.06;94.59
17525;BME280;40431;52.198;9.902;2022-12-20T13:10:58;100262.94;;;10.07;94.38
17525;BME280;40431;52.198;9.902;2022-12-20T13:13:26;100255.88;;;10.04;94.49
17525;BME280;40431;52.198;9.902;2022-12-20T13:16:12;100266.88;;;10.01;94.52
17525;BME280;40431;52.198;9.902;2022-12-20T13:19:10;100249.50;;;10.05;94.06